createdAt,value
2023-01-23T00:00:09.483Z,9.00
2023-01-23T00:02:37.676Z,7.50
2023-01-23T00:05:06.222Z,10.90
2023-01-23T00:07:34.229Z,6.43
2023-01-23T00:10:02.205Z,8.87
2023-01-23T00:12:30.138Z,8.20
2023-01-23T00:14:59.343Z,8.50
2023-01-23T00:17:28.169Z,6.40
2023-01-23T00:19:58.317Z,9.90
2023-01-23T00:22:26.210Z,8.50
2023-01-23T00:24:54.051Z,7.63
2023-01-23T00:27:22.038Z,9.73
2023-01-23T00:29:49.966Z,7.50
2023-01-23T00:32:19.149Z,7.70
2023-01-23T00:34:47.199Z,10.43
2023-01-23T00:37:16.527Z,9.40
2023-01-23T00:39:45.837Z,11.57
2023-01-23T00:42:13.833Z,7.10
2023-01-23T00:44:41.741Z,7.37
2023-01-23T00:47:09.639Z,7.00
2023-01-23T00:49:38.882Z,8.43
2023-01-23T00:52:06.728Z,8.87
2023-01-23T00:54:34.669Z,8.40
2023-01-23T00:57:02.598Z,5.73
2023-01-23T00:59:30.831Z,7.17
2023-01-23T01:01:59.031Z,8.70
2023-01-23T01:04:27.000Z,8.37
2023-01-23T01:06:56.284Z,6.73
2023-01-23T01:09:24.869Z,7.13
2023-01-23T01:11:53.029Z,8.20
2023-01-23T01:14:20.987Z,8.60
2023-01-23T01:16:48.958Z,11.03
2023-01-23T01:19:19.104Z,11.90
2023-01-23T01:21:46.981Z,7.77
2023-01-23T01:24:16.216Z,8.53
2023-01-23T01:26:44.069Z,7.93
2023-01-23T01:29:11.984Z,9.83
2023-01-23T01:31:39.865Z,10.43
2023-01-23T01:34:07.753Z,8.50
2023-01-23T01:36:35.753Z,12.33
2023-01-23T01:39:03.625Z,8.20
2023-01-23T01:41:32.884Z,8.53
2023-01-23T01:44:00.748Z,8.53
2023-01-23T01:46:29.756Z,8.03
2023-01-23T01:49:04.650Z,12.93
2023-01-23T01:51:36.035Z,6.97
2023-01-23T01:54:08.536Z,7.33
2023-01-23T01:56:42.292Z,11.57
2023-01-23T01:59:12.068Z,11.87
2023-01-23T02:01:41.310Z,9.20
2023-01-23T02:04:10.400Z,11.90
2023-01-23T02:06:38.448Z,7.10
2023-01-23T02:09:11.184Z,7.37
2023-01-23T02:11:40.472Z,8.17
2023-01-23T02:14:08.730Z,6.77
2023-01-23T02:16:41.044Z,6.50
2023-01-23T02:19:16.548Z,7.63
2023-01-23T02:21:47.185Z,8.73
2023-01-23T02:24:21.385Z,10.23
2023-01-23T02:26:50.564Z,7.70
2023-01-23T02:29:19.241Z,6.63
2023-01-23T02:31:47.417Z,11.03
2023-01-23T02:34:15.806Z,7.20
2023-01-23T02:36:49.086Z,7.17
2023-01-23T02:39:18.765Z,9.27
2023-01-23T02:41:48.611Z,10.43
2023-01-23T02:44:21.182Z,10.40
2023-01-23T02:46:49.105Z,8.23
2023-01-23T02:49:17.204Z,9.93
2023-01-23T02:51:45.045Z,9.33
2023-01-23T02:54:12.953Z,7.33
2023-01-23T02:56:42.098Z,7.93
2023-01-23T02:59:28.112Z,7.37
2023-01-23T03:01:57.606Z,7.87
2023-01-23T03:04:25.545Z,7.80
2023-01-23T03:06:53.477Z,8.87
2023-01-23T03:09:22.628Z,7.40
2023-01-23T03:11:50.698Z,9.00
2023-01-23T03:14:20.918Z,8.67
2023-01-23T03:16:51.369Z,7.13
2023-01-23T03:19:21.208Z,9.60
2023-01-23T03:21:49.133Z,8.33
2023-01-23T03:24:17.403Z,10.57
2023-01-23T03:26:47.483Z,8.30
2023-01-23T03:29:34.856Z,8.33
2023-01-23T03:32:02.914Z,6.70
2023-01-23T03:34:32.425Z,9.00
2023-01-23T03:37:01.224Z,9.20
2023-01-23T03:39:46.334Z,7.63
2023-01-23T03:42:14.247Z,6.27
2023-01-23T03:44:42.443Z,13.57
2023-01-23T03:47:10.411Z,9.73
2023-01-23T03:49:39.653Z,7.87
2023-01-23T03:52:07.565Z,9.07
2023-01-23T03:54:35.789Z,13.87
2023-01-23T03:57:03.635Z,10.80
2023-01-23T03:59:31.533Z,12.60
2023-01-23T04:02:00.734Z,10.10
2023-01-23T04:04:28.713Z,7.00
2023-01-23T04:06:57.928Z,8.93
2023-01-23T04:09:27.889Z,7.07
2023-01-23T04:11:56.261Z,10.10
2023-01-23T04:14:24.388Z,7.60
2023-01-23T04:16:52.549Z,9.27
2023-01-23T04:19:21.563Z,7.47
2023-01-23T04:21:49.845Z,10.37
2023-01-23T04:24:19.464Z,8.43
2023-01-23T04:26:47.379Z,8.23
2023-01-23T04:29:15.258Z,10.07
2023-01-23T04:31:43.268Z,9.13
2023-01-23T04:34:11.249Z,8.73
2023-01-23T04:36:39.325Z,13.10
2023-01-23T04:39:07.250Z,8.37
2023-01-23T04:41:36.555Z,9.80
2023-01-23T04:44:18.706Z,9.83
2023-01-23T04:46:46.844Z,8.17
2023-01-23T04:49:14.876Z,8.23
2023-01-23T04:51:44.397Z,7.83
2023-01-23T04:54:12.320Z,8.60
2023-01-23T04:56:41.659Z,8.43
2023-01-23T04:59:09.545Z,10.43
2023-01-23T05:01:37.743Z,9.07
2023-01-23T05:04:06.156Z,9.90
2023-01-23T05:06:34.187Z,9.83
2023-01-23T05:09:02.046Z,11.07
2023-01-23T05:11:30.023Z,10.20
2023-01-23T05:13:59.261Z,7.40
2023-01-23T05:16:27.167Z,10.60
2023-01-23T05:18:55.003Z,12.10
2023-01-23T05:21:22.853Z,9.00
2023-01-23T05:23:50.723Z,12.07
2023-01-23T05:26:18.672Z,9.63
2023-01-23T05:28:46.735Z,9.43
2023-01-23T05:31:16.197Z,13.10
2023-01-23T05:33:44.138Z,10.30
2023-01-23T05:36:12.068Z,7.57
2023-01-23T05:38:40.342Z,9.27
2023-01-23T05:41:08.265Z,10.63
2023-01-23T05:43:36.159Z,9.20
2023-01-23T05:46:04.353Z,9.93
2023-01-23T05:48:33.556Z,11.03
2023-01-23T05:51:03.635Z,10.97
2023-01-23T05:53:31.556Z,9.93
2023-01-23T05:55:59.525Z,11.40
2023-01-23T05:58:27.429Z,10.63
2023-01-23T06:00:55.744Z,8.87
2023-01-23T06:03:23.674Z,10.63
2023-01-23T06:05:52.951Z,11.30
2023-01-23T06:08:20.958Z,9.73
2023-01-23T06:10:48.864Z,9.20
2023-01-23T06:13:16.724Z,8.97
2023-01-23T06:15:44.687Z,13.33
2023-01-23T06:18:12.730Z,9.53
2023-01-23T06:20:41.734Z,10.07
2023-01-23T06:23:11.078Z,9.53
2023-01-23T06:25:39.422Z,8.00
2023-01-23T06:28:07.485Z,9.30
2023-01-23T06:30:35.619Z,9.10
2023-01-23T06:33:03.519Z,12.33
2023-01-23T06:35:31.359Z,9.50
2023-01-23T06:37:59.261Z,9.33
2023-01-23T06:40:28.568Z,9.83
2023-01-23T06:42:56.933Z,10.27
2023-01-23T06:45:24.796Z,9.17
2023-01-23T06:47:53.379Z,9.43
2023-01-23T06:50:21.612Z,14.70
2023-01-23T06:52:49.732Z,9.63
2023-01-23T06:55:17.779Z,11.30
2023-01-23T06:57:47.065Z,9.23
2023-01-23T07:00:16.455Z,11.60
2023-01-23T07:02:45.741Z,9.57
2023-01-23T07:05:13.714Z,12.10
2023-01-23T07:07:41.652Z,12.30
2023-01-23T07:10:11.110Z,13.97
2023-01-23T07:12:39.682Z,11.90
2023-01-23T07:15:10.195Z,11.30
2023-01-23T07:17:38.099Z,11.43
2023-01-23T07:20:06.918Z,10.83
2023-01-23T07:22:34.881Z,14.63
2023-01-23T07:25:02.774Z,13.07
2023-01-23T07:27:30.634Z,13.73
2023-01-23T07:29:58.524Z,14.60
2023-01-23T07:32:27.735Z,14.47
2023-01-23T07:34:55.662Z,10.47
2023-01-23T07:37:25.001Z,11.73
2023-01-23T07:39:53.432Z,14.13
2023-01-23T07:42:21.323Z,13.97
2023-01-23T07:44:49.238Z,13.10
2023-01-23T07:47:17.134Z,12.17
2023-01-23T07:49:46.771Z,13.43
2023-01-23T07:52:14.577Z,13.43
2023-01-23T07:54:42.415Z,13.53
2023-01-23T07:57:10.316Z,14.50
2023-01-23T07:59:38.225Z,15.43
2023-01-23T08:02:06.129Z,13.50
2023-01-23T08:04:34.017Z,12.33
2023-01-23T08:07:03.271Z,15.33
2023-01-23T08:09:31.209Z,11.90
2023-01-23T08:11:59.045Z,11.80
2023-01-23T08:14:27.068Z,11.93
2023-01-23T08:16:55.091Z,12.17
2023-01-23T08:19:25.228Z,14.80
2023-01-23T08:21:53.147Z,13.17
2023-01-23T08:24:22.442Z,13.73
2023-01-23T08:26:50.369Z,11.77
2023-01-23T08:29:18.255Z,12.03
2023-01-23T08:31:46.315Z,13.93
2023-01-23T08:34:14.294Z,13.83
2023-01-23T08:36:43.344Z,14.77
2023-01-23T08:39:11.235Z,13.87
2023-01-23T08:41:40.496Z,14.03
2023-01-23T08:44:08.406Z,13.00
2023-01-23T08:46:36.285Z,14.40
2023-01-23T08:49:05.057Z,15.43
2023-01-23T08:51:33.046Z,14.47
2023-01-23T08:54:00.977Z,15.33
2023-01-23T08:56:28.888Z,15.70
2023-01-23T08:58:58.870Z,12.17
2023-01-23T09:01:28.365Z,16.73
2023-01-23T09:03:57.441Z,14.97
2023-01-23T09:06:25.422Z,11.37
2023-01-23T09:08:53.391Z,10.53
2023-01-23T09:11:23.297Z,12.47
2023-01-23T09:13:53.888Z,11.67
2023-01-23T09:16:23.578Z,12.47
2023-01-23T09:18:51.594Z,14.77
2023-01-23T09:21:19.582Z,12.97
2023-01-23T09:23:47.690Z,14.30
2023-01-23T09:26:18.139Z,15.00
2023-01-23T09:28:47.682Z,14.00
2023-01-23T09:31:16.363Z,13.37
2023-01-23T09:33:46.056Z,19.87
2023-01-23T09:36:15.020Z,12.83
2023-01-23T09:38:43.495Z,14.90
2023-01-23T09:41:17.921Z,13.77
2023-01-23T09:43:53.020Z,13.93
2023-01-23T09:46:25.701Z,11.83
2023-01-23T09:49:01.681Z,12.57
2023-01-23T09:51:40.082Z,14.97
2023-01-23T09:54:18.152Z,15.23
2023-01-23T09:56:50.292Z,13.20
2023-01-23T09:59:29.187Z,12.97
2023-01-23T10:01:57.537Z,11.37
2023-01-23T10:04:26.881Z,15.20
2023-01-23T10:07:19.184Z,11.83
2023-01-23T10:10:07.826Z,14.20
2023-01-23T10:12:44.575Z,15.17
2023-01-23T10:15:23.240Z,14.03
2023-01-23T10:18:01.835Z,15.80
2023-01-23T10:20:51.099Z,14.80
2023-01-23T10:23:40.993Z,16.20
2023-01-23T10:26:15.862Z,14.47
2023-01-23T10:28:45.369Z,13.80
2023-01-23T10:31:23.984Z,14.33
2023-01-23T10:34:02.489Z,11.67
2023-01-23T10:36:47.946Z,13.10
2023-01-23T10:39:27.330Z,14.30
2023-01-23T10:42:01.996Z,13.03
2023-01-23T10:44:31.038Z,14.13
2023-01-23T10:47:03.664Z,12.57
2023-01-23T10:49:35.097Z,14.03
2023-01-23T10:52:05.245Z,13.13
2023-01-23T10:54:47.146Z,13.23
2023-01-23T10:57:24.802Z,15.97
2023-01-23T10:59:57.276Z,11.83
2023-01-23T11:02:30.269Z,12.77
2023-01-23T11:04:58.908Z,11.30
2023-01-23T11:07:30.099Z,12.17
2023-01-23T11:09:59.997Z,12.67
2023-01-23T11:12:29.982Z,12.53
2023-01-23T11:15:22.089Z,10.33
2023-01-23T11:17:51.436Z,9.27
2023-01-23T11:20:26.306Z,12.63
2023-01-23T11:23:05.129Z,10.90
2023-01-23T11:25:35.013Z,10.10
2023-01-23T11:28:04.739Z,10.57
2023-01-23T11:30:44.531Z,9.53
2023-01-23T11:33:23.073Z,9.60
2023-01-23T11:36:02.844Z,10.20
2023-01-23T11:38:44.892Z,8.17
2023-01-23T11:41:16.311Z,6.37
2023-01-23T11:43:44.168Z,5.67
2023-01-23T11:46:23.138Z,5.93
2023-01-23T11:49:05.572Z,6.83
2023-01-23T11:51:39.084Z,4.07
2023-01-23T11:54:38.658Z,5.40
2023-01-23T11:57:13.109Z,4.43
2023-01-23T11:59:55.765Z,4.70
2023-01-23T12:02:58.672Z,9.93
2023-01-23T12:05:47.312Z,5.17
2023-01-23T12:08:26.719Z,4.87
2023-01-23T12:11:12.194Z,5.37
2023-01-23T12:14:01.355Z,3.03
2023-01-23T12:16:48.028Z,2.80
2023-01-23T12:19:30.881Z,3.30
2023-01-23T12:22:09.234Z,3.97
2023-01-23T12:24:54.188Z,3.93
2023-01-23T12:27:35.957Z,4.10
2023-01-23T12:30:21.898Z,3.83
2023-01-23T12:33:00.866Z,6.13
2023-01-23T12:35:36.790Z,3.50
2023-01-23T12:38:25.491Z,4.60
2023-01-23T12:41:02.653Z,4.20
2023-01-23T12:43:39.246Z,4.37
2023-01-23T12:46:11.491Z,3.70
2023-01-23T12:48:44.277Z,4.50
2023-01-23T12:51:17.986Z,5.63
2023-01-23T12:53:50.907Z,3.93
2023-01-23T12:56:24.104Z,4.43
2023-01-23T12:59:04.122Z,3.90
2023-01-23T13:01:47.506Z,2.27
2023-01-23T13:04:43.099Z,2.77
2023-01-23T13:07:25.306Z,2.93
2023-01-23T13:10:21.544Z,2.97
2023-01-23T13:12:50.714Z,5.37
2023-01-23T13:15:40.272Z,3.37
2023-01-23T13:18:24.384Z,2.97
2023-01-23T13:21:17.772Z,2.33
2023-01-23T13:23:46.131Z,2.83
2023-01-23T13:26:29.212Z,2.90
2023-01-23T13:29:03.762Z,3.60
2023-01-23T13:31:42.265Z,3.40
2023-01-23T13:34:39.581Z,4.60
2023-01-23T13:37:46.919Z,3.63
2023-01-23T13:40:17.428Z,3.40
2023-01-23T13:42:48.557Z,3.47
2023-01-23T13:45:34.358Z,3.10
2023-01-23T14:21:25.597Z,7.47
2023-01-23T14:23:57.776Z,5.17
2023-01-23T14:26:27.694Z,5.07
2023-01-23T14:28:58.144Z,5.43
2023-01-23T14:31:27.978Z,5.47
2023-01-23T14:34:09.794Z,4.90
2023-01-23T14:36:43.492Z,7.23
2023-01-23T14:39:17.709Z,5.80
2023-01-23T14:41:47.671Z,5.37
2023-01-23T14:44:21.683Z,7.73
2023-01-23T14:46:53.070Z,6.17
2023-01-23T14:49:26.261Z,8.57
2023-01-23T14:52:03.608Z,7.60
2023-01-23T14:54:33.759Z,5.80
2023-01-23T14:57:05.472Z,5.27
2023-01-23T14:59:37.129Z,7.20
2023-01-23T15:02:25.328Z,7.37
2023-01-23T15:05:09.175Z,5.97
2023-01-23T15:07:44.624Z,5.77
2023-01-23T15:10:16.621Z,7.00
2023-01-23T15:12:53.379Z,5.70
2023-01-23T15:15:23.445Z,6.70
2023-01-23T15:17:52.235Z,5.63
2023-01-23T15:20:38.231Z,7.30
2023-01-23T15:23:25.519Z,7.27
2023-01-23T15:26:24.814Z,5.77
2023-01-23T15:28:54.481Z,6.93
2023-01-23T15:31:29.334Z,6.37
2023-01-23T15:34:11.362Z,6.60
2023-01-23T15:36:39.586Z,6.83
2023-01-23T15:39:19.665Z,5.77
2023-01-23T15:41:50.895Z,4.83
2023-01-23T15:44:21.199Z,6.73
2023-01-23T15:46:49.216Z,5.73
2023-01-23T15:49:25.935Z,6.27
2023-01-23T15:51:57.396Z,6.47
2023-01-23T15:54:32.404Z,5.80
2023-01-23T15:57:07.417Z,7.73
2023-01-23T15:59:37.413Z,5.97
2023-01-23T16:02:06.347Z,6.20
2023-01-23T16:04:34.859Z,7.13
2023-01-23T16:07:07.237Z,7.50
2023-01-23T16:09:40.407Z,7.77
2023-01-23T16:12:15.443Z,7.77
2023-01-23T16:14:43.440Z,6.27
2023-01-23T16:17:16.811Z,6.27
2023-01-23T16:19:45.599Z,5.50
2023-01-23T16:22:16.002Z,5.60
2023-01-23T16:24:45.698Z,6.40
2023-01-23T16:27:27.208Z,6.37
2023-01-23T16:29:56.103Z,8.37
2023-01-23T16:32:24.999Z,6.03
2023-01-23T16:34:53.215Z,7.47
2023-01-23T16:37:21.276Z,7.97
2023-01-23T16:39:50.673Z,7.73
2023-01-23T16:42:22.576Z,6.33
2023-01-23T16:44:50.845Z,7.63
2023-01-23T16:47:18.918Z,7.17
2023-01-23T16:49:52.714Z,6.33
2023-01-23T16:52:22.675Z,6.10
2023-01-23T16:54:55.533Z,5.97
2023-01-23T16:57:24.583Z,7.37
2023-01-23T16:59:56.291Z,7.30
2023-01-23T17:02:28.463Z,7.23
2023-01-23T17:04:56.442Z,7.23
2023-01-23T17:07:24.432Z,7.20
2023-01-23T17:09:53.727Z,6.23
2023-01-23T17:12:24.677Z,6.90
2023-01-23T17:14:53.410Z,7.03
2023-01-23T17:17:28.752Z,7.57
2023-01-23T17:19:57.542Z,7.40
2023-01-23T17:22:27.958Z,7.30
2023-01-23T17:24:57.272Z,7.60
2023-01-23T17:27:25.324Z,7.33
2023-01-23T17:29:53.256Z,6.00
2023-01-23T17:32:30.384Z,7.00
2023-01-23T17:35:01.621Z,7.80
2023-01-23T17:37:30.693Z,7.03
2023-01-23T17:40:00.011Z,10.37
2023-01-23T17:42:27.997Z,6.73
2023-01-23T17:44:55.860Z,6.87
2023-01-23T17:47:23.950Z,8.00
2023-01-23T17:49:54.386Z,7.50
2023-01-23T17:52:24.737Z,7.40
2023-01-23T17:54:54.275Z,8.93
2023-01-23T17:57:23.721Z,6.83
2023-01-23T17:59:51.691Z,7.37
2023-01-23T18:02:26.932Z,7.83
2023-01-23T18:04:55.105Z,7.57
2023-01-23T18:07:23.113Z,7.43
2023-01-23T18:09:52.466Z,7.47
2023-01-23T18:12:29.997Z,8.00
2023-01-23T18:15:04.707Z,9.67
2023-01-23T18:17:38.478Z,8.10
2023-01-23T18:20:18.295Z,14.57
2023-01-23T18:22:46.794Z,10.40
2023-01-23T18:25:16.241Z,10.13
2023-01-23T18:27:50.170Z,10.80
2023-01-23T18:30:34.614Z,9.17
2023-01-23T18:33:14.543Z,10.53
2023-01-23T18:35:57.943Z,8.80
2023-01-23T18:38:34.284Z,8.23
2023-01-23T18:41:14.360Z,9.87
2023-01-23T18:43:48.537Z,7.97
2023-01-23T18:46:18.665Z,9.20
2023-01-23T18:48:49.384Z,9.57
2023-01-23T18:51:30.824Z,8.23
2023-01-23T18:54:09.917Z,10.63
2023-01-23T18:56:48.389Z,9.43
2023-01-23T18:59:27.089Z,8.40
2023-01-23T19:02:01.667Z,8.70
2023-01-23T19:04:38.350Z,8.70
2023-01-23T19:07:16.068Z,9.57
2023-01-23T19:09:46.513Z,9.50
2023-01-23T19:12:26.096Z,8.60
2023-01-23T19:15:12.210Z,22.07
2023-01-23T19:17:46.847Z,14.67
2023-01-23T19:20:24.051Z,13.40
2023-01-23T19:23:01.740Z,8.83
2023-01-23T19:25:30.323Z,11.03
2023-01-23T19:28:00.840Z,12.03
2023-01-23T19:30:31.059Z,12.60
2023-01-23T19:32:59.003Z,12.40
2023-01-23T19:35:26.996Z,12.67
2023-01-23T19:37:54.969Z,13.90
2023-01-23T19:40:22.926Z,10.10
2023-01-23T19:43:05.689Z,11.70
2023-01-23T19:45:42.729Z,15.67
2023-01-23T19:48:10.983Z,16.63
2023-01-23T19:50:39.418Z,12.53
2023-01-23T19:53:07.613Z,18.23
2023-01-23T19:55:38.262Z,11.07
2023-01-23T19:58:06.376Z,14.13
2023-01-23T20:00:36.315Z,12.37
2023-01-23T20:03:06.034Z,18.97
2023-01-23T20:05:33.993Z,15.50
2023-01-23T20:08:02.059Z,12.67
2023-01-23T20:10:30.049Z,10.13
2023-01-23T20:12:57.914Z,11.67
2023-01-23T20:15:27.539Z,13.43
2023-01-23T20:17:55.502Z,10.77
2023-01-23T20:20:24.852Z,11.33
2023-01-23T20:22:52.814Z,10.70
2023-01-23T20:25:21.221Z,11.60
2023-01-23T20:27:49.583Z,10.20
2023-01-23T20:30:20.485Z,11.60
2023-01-23T20:32:49.127Z,10.70
2023-01-23T20:35:17.171Z,10.93
2023-01-23T20:37:46.437Z,13.40
2023-01-23T20:40:14.683Z,11.37
2023-01-23T20:42:42.571Z,14.67
2023-01-23T20:45:11.174Z,12.97
2023-01-23T20:47:39.106Z,12.27
2023-01-23T20:50:07.650Z,10.10
2023-01-23T20:52:52.819Z,10.10
2023-01-23T20:55:22.386Z,13.17
2023-01-23T20:58:22.327Z,12.07
2023-01-23T21:00:50.211Z,12.33
2023-01-23T21:03:18.139Z,11.93
2023-01-23T21:05:46.053Z,10.60
2023-01-23T21:08:13.971Z,11.77
2023-01-23T21:10:43.263Z,10.33
2023-01-23T21:13:15.579Z,11.53
2023-01-23T21:15:43.620Z,11.40
2023-01-23T21:18:11.684Z,10.07
2023-01-23T21:20:40.142Z,11.30
2023-01-23T21:23:08.082Z,11.63
2023-01-23T21:25:36.691Z,12.50
2023-01-23T21:28:06.073Z,11.80
2023-01-23T21:30:34.052Z,12.07
2023-01-23T21:33:01.967Z,11.80
2023-01-23T21:35:29.878Z,12.37
2023-01-23T21:37:57.760Z,11.80
2023-01-23T21:40:25.681Z,11.60
2023-01-23T21:42:53.601Z,10.93
2023-01-23T21:45:23.297Z,13.40
2023-01-23T21:47:51.206Z,11.33
2023-01-23T21:50:19.108Z,12.53
2023-01-23T21:52:46.971Z,11.97
2023-01-23T21:55:14.973Z,13.70
2023-01-23T21:57:42.959Z,11.57
2023-01-23T22:00:40.901Z,13.07
2023-01-23T22:03:10.111Z,13.67
2023-01-23T22:05:38.024Z,11.20
2023-01-23T22:08:06.241Z,11.30
2023-01-23T22:10:34.270Z,12.70
2023-01-23T22:13:02.240Z,10.50
2023-01-23T22:15:30.179Z,12.73
2023-01-23T22:17:58.081Z,12.10
2023-01-23T22:20:27.301Z,12.03
2023-01-23T22:22:55.228Z,12.37
2023-01-23T22:25:23.433Z,11.63
2023-01-23T22:27:51.372Z,11.33
2023-01-23T22:30:19.515Z,11.77
2023-01-23T22:32:47.585Z,10.13
2023-01-23T22:35:15.526Z,12.70
2023-01-23T22:37:44.836Z,11.47
2023-01-23T22:40:13.035Z,10.63
2023-01-23T22:42:40.990Z,11.17
2023-01-23T22:45:10.637Z,11.00
2023-01-23T22:47:38.571Z,10.80
2023-01-23T22:50:07.287Z,11.80
2023-01-23T22:52:35.336Z,11.80
2023-01-23T22:55:04.733Z,10.70
2023-01-23T22:57:32.605Z,11.80
2023-01-23T23:00:00.437Z,10.77
2023-01-23T23:02:28.327Z,10.87
2023-01-23T23:04:56.203Z,12.27
2023-01-23T23:07:24.155Z,10.70
2023-01-23T23:09:52.054Z,10.27
2023-01-23T23:12:21.317Z,11.23
2023-01-23T23:14:49.198Z,11.60
2023-01-23T23:17:17.136Z,10.47
2023-01-23T23:19:44.997Z,10.03
2023-01-23T23:22:12.914Z,11.83
2023-01-23T23:24:40.768Z,10.67
2023-01-23T23:27:08.618Z,10.23
2023-01-23T23:29:38.044Z,11.63
2023-01-23T23:32:06.275Z,9.90
2023-01-23T23:34:36.171Z,11.60
2023-01-23T23:37:04.398Z,12.37
2023-01-23T23:39:32.317Z,11.97
2023-01-23T23:42:00.217Z,11.27
2023-01-23T23:44:28.305Z,11.20
2023-01-23T23:46:57.569Z,11.20
2023-01-23T23:49:26.379Z,11.10
2023-01-23T23:51:54.337Z,11.07
2023-01-23T23:54:22.244Z,12.20
2023-01-23T23:56:50.197Z,11.70
2023-01-23T23:59:18.444Z,10.67
